sensor_id;sensor_type;location;lat;lon;timestamp;temperature;humidity
13569;DHT22;6856;51.460;7.158;2022-10-16T00:01:36;17.50;69.10
13569;DHT22;6856;51.460;7.158;2022-10-16T00:04:10;17.50;69.30
13569;DHT22;6856;51.460;7.158;2022-10-16T00:06:44;17.50;69.20
13569;DHT22;6856;51.460;7.158;2022-10-16T00:09:18;17.50;69.10
13569;DHT22;6856;51.460;7.158;2022-10-16T00:11:53;17.50;69.30
13569;DHT22;6856;51.460;7.158;2022-10-16T00:14:27;17.50;68.90
13569;DHT22;6856;51.460;7.158;2022-10-16T00:17:03;17.50;69.80
13569;DHT22;6856;51.460;7.158;2022-10-16T00:19:37;17.40;69.00
13569;DHT22;6856;51.460;7.158;2022-10-16T00:22:11;17.40;68.90
13569;DHT22;6856;51.460;7.158;2022-10-16T00:24:44;17.40;68.80
13569;DHT22;6856;51.460;7.158;2022-10-16T00:27:19;17.40;69.00
13569;DHT22;6856;51.460;7.158;2022-10-16T00:29:52;17.40;68.90
13569;DHT22;6856;51.460;7.158;2022-10-16T00:32:26;17.40;69.00
13569;DHT22;6856;51.460;7.158;2022-10-16T00:35:00;17.40;69.10
13569;DHT22;6856;51.460;7.158;2022-10-16T00:37:35;17.40;68.90
13569;DHT22;6856;51.460;7.158;2022-10-16T00:40:10;17.40;69.00
13569;DHT22;6856;51.460;7.158;2022-10-16T00:42:45;17.40;69.10
13569;DHT22;6856;51.460;7.158;2022-10-16T00:45:18;17.30;69.00
13569;DHT22;6856;51.460;7.158;2022-10-16T00:47:54;17.30;68.80
13569;DHT22;6856;51.460;7.158;2022-10-16T00:50:31;17.30;69.10
13569;DHT22;6856;51.460;7.158;2022-10-16T00:53:06;17.30;69.10
13569;DHT22;6856;51.460;7.158;2022-10-16T00:55:39;17.30;69.00
13569;DHT22;6856;51.460;7.158;2022-10-16T00:58:15;17.30;69.00
13569;DHT22;6856;51.460;7.158;2022-10-16T01:00:48;17.30;69.00
13569;DHT22;6856;51.460;7.158;2022-10-16T01:03:25;17.30;69.10
13569;DHT22;6856;51.460;7.158;2022-10-16T01:06:09;17.30;69.20
13569;DHT22;6856;51.460;7.158;2022-10-16T01:08:59;17.30;69.20
13569;DHT22;6856;51.460;7.158;2022-10-16T01:11:52;17.30;69.20
13569;DHT22;6856;51.460;7.158;2022-10-16T01:14:41;17.20;69.20
13569;DHT22;6856;51.460;7.158;2022-10-16T01:17:23;17.20;69.20
13569;DHT22;6856;51.460;7.158;2022-10-16T01:20:08;17.30;69.30
13569;DHT22;6856;51.460;7.158;2022-10-16T01:23:01;17.20;69.30
13569;DHT22;6856;51.460;7.158;2022-10-16T01:25:55;17.20;69.30
13569;DHT22;6856;51.460;7.158;2022-10-16T01:28:47;17.20;69.30
13569;DHT22;6856;51.460;7.158;2022-10-16T01:31:28;17.20;69.20
13569;DHT22;6856;51.460;7.158;2022-10-16T01:34:07;17.20;69.20
13569;DHT22;6856;51.460;7.158;2022-10-16T01:36:50;17.20;69.10
13569;DHT22;6856;51.460;7.158;2022-10-16T01:39:31;17.20;69.20
13569;DHT22;6856;51.460;7.158;2022-10-16T01:42:18;17.20;69.10
13569;DHT22;6856;51.460;7.158;2022-10-16T01:44:56;17.10;69.10
13569;DHT22;6856;51.460;7.158;2022-10-16T01:47:33;17.20;68.90
13569;DHT22;6856;51.460;7.158;2022-10-16T01:50:08;17.10;69.00
13569;DHT22;6856;51.460;7.158;2022-10-16T01:52:45;17.10;68.90
13569;DHT22;6856;51.460;7.158;2022-10-16T01:55:26;17.10;68.90
13569;DHT22;6856;51.460;7.158;2022-10-16T01:58:04;17.10;69.00
13569;DHT22;6856;51.460;7.158;2022-10-16T02:00:44;17.10;68.90
13569;DHT22;6856;51.460;7.158;2022-10-16T02:03:20;17.10;69.10
13569;DHT22;6856;51.460;7.158;2022-10-16T02:05:56;17.00;69.00
13569;DHT22;6856;51.460;7.158;2022-10-16T02:08:31;17.00;69.10
13569;DHT22;6856;51.460;7.158;2022-10-16T02:11:06;17.00;69.20
13569;DHT22;6856;51.460;7.158;2022-10-16T02:13:44;17.00;69.30
13569;DHT22;6856;51.460;7.158;2022-10-16T02:16:20;17.00;69.30
13569;DHT22;6856;51.460;7.158;2022-10-16T02:18:54;17.00;69.20
13569;DHT22;6856;51.460;7.158;2022-10-16T02:21:32;17.00;69.30
13569;DHT22;6856;51.460;7.158;2022-10-16T02:24:17;17.00;69.40
13569;DHT22;6856;51.460;7.158;2022-10-16T02:27:03;17.00;69.40
13569;DHT22;6856;51.460;7.158;2022-10-16T02:29:42;17.00;69.40
13569;DHT22;6856;51.460;7.158;2022-10-16T02:32:24;17.00;69.40
13569;DHT22;6856;51.460;7.158;2022-10-16T02:35:04;17.00;69.40
13569;DHT22;6856;51.460;7.158;2022-10-16T02:37:40;17.00;69.30
13569;DHT22;6856;51.460;7.158;2022-10-16T02:40:15;17.00;69.40
13569;DHT22;6856;51.460;7.158;2022-10-16T02:42:55;17.00;69.30
13569;DHT22;6856;51.460;7.158;2022-10-16T02:45:29;16.70;69.10
13569;DHT22;6856;51.460;7.158;2022-10-16T02:48:05;17.00;69.40
13569;DHT22;6856;51.460;7.158;2022-10-16T02:50:40;17.00;69.40
13569;DHT22;6856;51.460;7.158;2022-10-16T02:53:13;17.00;69.20
13569;DHT22;6856;51.460;7.158;2022-10-16T02:55:47;17.00;69.30
13569;DHT22;6856;51.460;7.158;2022-10-16T02:58:25;17.00;69.20
13569;DHT22;6856;51.460;7.158;2022-10-16T03:01:01;17.00;69.50
13569;DHT22;6856;51.460;7.158;2022-10-16T03:03:36;17.00;69.30
13569;DHT22;6856;51.460;7.158;2022-10-16T03:06:09;17.00;69.30
13569;DHT22;6856;51.460;7.158;2022-10-16T03:08:44;17.00;69.40
13569;DHT22;6856;51.460;7.158;2022-10-16T03:11:18;17.00;69.40
13569;DHT22;6856;51.460;7.158;2022-10-16T03:13:53;17.00;69.30
13569;DHT22;6856;51.460;7.158;2022-10-16T03:16:26;17.00;69.30
13569;DHT22;6856;51.460;7.158;2022-10-16T03:19:01;17.00;69.10
13569;DHT22;6856;51.460;7.158;2022-10-16T03:21:34;17.00;69.10
13569;DHT22;6856;51.460;7.158;2022-10-16T03:24:08;17.00;69.20
13569;DHT22;6856;51.460;7.158;2022-10-16T03:26:41;17.10;69.30
13569;DHT22;6856;51.460;7.158;2022-10-16T03:29:15;17.00;69.00
13569;DHT22;6856;51.460;7.158;2022-10-16T03:31:48;17.00;69.00
13569;DHT22;6856;51.460;7.158;2022-10-16T03:34:23;17.00;69.10
13569;DHT22;6856;51.460;7.158;2022-10-16T03:36:57;17.00;69.60
13569;DHT22;6856;51.460;7.158;2022-10-16T03:39:30;17.00;68.90
13569;DHT22;6856;51.460;7.158;2022-10-16T03:42:04;17.00;68.90
13569;DHT22;6856;51.460;7.158;2022-10-16T03:44:38;17.00;69.40
13569;DHT22;6856;51.460;7.158;2022-10-16T03:47:11;17.00;68.70
13569;DHT22;6856;51.460;7.158;2022-10-16T03:49:47;17.00;68.80
13569;DHT22;6856;51.460;7.158;2022-10-16T03:52:20;17.00;68.70
13569;DHT22;6856;51.460;7.158;2022-10-16T03:54:54;17.00;68.60
13569;DHT22;6856;51.460;7.158;2022-10-16T03:57:27;17.00;68.60
13569;DHT22;6856;51.460;7.158;2022-10-16T04:00:01;17.00;68.50
13569;DHT22;6856;51.460;7.158;2022-10-16T04:02:38;17.00;68.50
13569;DHT22;6856;51.460;7.158;2022-10-16T04:05:14;17.00;68.40
13569;DHT22;6856;51.460;7.158;2022-10-16T04:07:48;17.00;68.30
13569;DHT22;6856;51.460;7.158;2022-10-16T04:10:22;17.00;68.20
13569;DHT22;6856;51.460;7.158;2022-10-16T04:12:55;17.00;68.20
13569;DHT22;6856;51.460;7.158;2022-10-16T04:15:28;17.00;68.20
13569;DHT22;6856;51.460;7.158;2022-10-16T04:18:02;17.00;68.10
13569;DHT22;6856;51.460;7.158;2022-10-16T04:20:37;17.00;68.30
13569;DHT22;6856;51.460;7.158;2022-10-16T04:23:11;17.00;68.20
13569;DHT22;6856;51.460;7.158;2022-10-16T04:25:45;16.90;68.00
13569;DHT22;6856;51.460;7.158;2022-10-16T04:28:18;16.90;68.00
13569;DHT22;6856;51.460;7.158;2022-10-16T04:30:52;16.90;67.90
13569;DHT22;6856;51.460;7.158;2022-10-16T04:33:26;16.90;68.10
13569;DHT22;6856;51.460;7.158;2022-10-16T04:36:02;16.90;67.90
13569;DHT22;6856;51.460;7.158;2022-10-16T04:38:36;16.90;68.10
13569;DHT22;6856;51.460;7.158;2022-10-16T04:41:11;16.90;67.90
13569;DHT22;6856;51.460;7.158;2022-10-16T04:43:45;16.80;67.90
13569;DHT22;6856;51.460;7.158;2022-10-16T04:46:19;17.10;68.00
13569;DHT22;6856;51.460;7.158;2022-10-16T04:48:52;16.80;67.80
13569;DHT22;6856;51.460;7.158;2022-10-16T04:51:27;16.80;67.90
13569;DHT22;6856;51.460;7.158;2022-10-16T04:54:00;16.80;67.90
13569;DHT22;6856;51.460;7.158;2022-10-16T04:56:33;16.80;67.80
13569;DHT22;6856;51.460;7.158;2022-10-16T04:59:15;16.80;67.90
13569;DHT22;6856;51.460;7.158;2022-10-16T05:01:49;16.80;67.90
13569;DHT22;6856;51.460;7.158;2022-10-16T05:04:23;16.80;68.00
13569;DHT22;6856;51.460;7.158;2022-10-16T05:06:58;16.80;67.90
13569;DHT22;6856;51.460;7.158;2022-10-16T05:09:32;16.70;67.80
13569;DHT22;6856;51.460;7.158;2022-10-16T05:12:06;16.80;67.90
13569;DHT22;6856;51.460;7.158;2022-10-16T05:14:40;16.70;68.00
13569;DHT22;6856;51.460;7.158;2022-10-16T05:17:13;16.70;68.80
13569;DHT22;6856;51.460;7.158;2022-10-16T05:19:47;16.70;68.10
13569;DHT22;6856;51.460;7.158;2022-10-16T05:22:22;16.70;68.10
13569;DHT22;6856;51.460;7.158;2022-10-16T05:24:56;16.70;68.30
13569;DHT22;6856;51.460;7.158;2022-10-16T05:27:30;16.70;68.20
13569;DHT22;6856;51.460;7.158;2022-10-16T05:30:07;16.80;68.40
13569;DHT22;6856;51.460;7.158;2022-10-16T05:32:46;16.70;68.30
13569;DHT22;6856;51.460;7.158;2022-10-16T05:35:21;16.70;68.30
13569;DHT22;6856;51.460;7.158;2022-10-16T05:37:56;16.80;68.30
13569;DHT22;6856;51.460;7.158;2022-10-16T05:40:30;16.70;68.20
13569;DHT22;6856;51.460;7.158;2022-10-16T05:43:04;16.80;68.30
13569;DHT22;6856;51.460;7.158;2022-10-16T05:45:37;16.70;68.20
13569;DHT22;6856;51.460;7.158;2022-10-16T05:48:11;16.70;68.20
13569;DHT22;6856;51.460;7.158;2022-10-16T05:50:45;16.70;68.20
13569;DHT22;6856;51.460;7.158;2022-10-16T05:53:20;16.70;68.20
13569;DHT22;6856;51.460;7.158;2022-10-16T05:55:57;16.70;68.20
13569;DHT22;6856;51.460;7.158;2022-10-16T05:58:32;16.70;68.40
13569;DHT22;6856;51.460;7.158;2022-10-16T06:01:11;16.70;68.50
13569;DHT22;6856;51.460;7.158;2022-10-16T06:03:46;16.70;68.40
13569;DHT22;6856;51.460;7.158;2022-10-16T06:06:21;16.70;68.50
13569;DHT22;6856;51.460;7.158;2022-10-16T06:08:58;16.70;68.60
13569;DHT22;6856;51.460;7.158;2022-10-16T06:11:33;16.70;68.40
13569;DHT22;6856;51.460;7.158;2022-10-16T06:14:08;16.70;68.60
13569;DHT22;6856;51.460;7.158;2022-10-16T06:16:42;16.70;68.50
13569;DHT22;6856;51.460;7.158;2022-10-16T06:19:16;16.70;68.40
13569;DHT22;6856;51.460;7.158;2022-10-16T06:21:50;16.70;68.50
13569;DHT22;6856;51.460;7.158;2022-10-16T06:24:24;16.70;68.50
13569;DHT22;6856;51.460;7.158;2022-10-16T06:26:58;16.70;68.60
13569;DHT22;6856;51.460;7.158;2022-10-16T06:29:32;16.70;68.60
13569;DHT22;6856;51.460;7.158;2022-10-16T06:32:33;16.70;68.50
13569;DHT22;6856;51.460;7.158;2022-10-16T06:35:07;16.80;69.20
13569;DHT22;6856;51.460;7.158;2022-10-16T06:37:41;16.70;68.70
13569;DHT22;6856;51.460;7.158;2022-10-16T06:40:16;16.80;68.80
13569;DHT22;6856;51.460;7.158;2022-10-16T06:42:49;16.70;68.60
13569;DHT22;6856;51.460;7.158;2022-10-16T06:45:24;16.80;68.90
13569;DHT22;6856;51.460;7.158;2022-10-16T06:48:00;16.80;69.10
13569;DHT22;6856;51.460;7.158;2022-10-16T06:50:34;16.80;69.20
13569;DHT22;6856;51.460;7.158;2022-10-16T06:53:07;16.80;69.10
13569;DHT22;6856;51.460;7.158;2022-10-16T06:55:42;16.80;69.20
13569;DHT22;6856;51.460;7.158;2022-10-16T06:58:16;16.80;69.20
13569;DHT22;6856;51.460;7.158;2022-10-16T07:00:54;16.90;69.20
13569;DHT22;6856;51.460;7.158;2022-10-16T07:03:29;16.90;69.40
13569;DHT22;6856;51.460;7.158;2022-10-16T07:06:03;16.90;69.20
13569;DHT22;6856;51.460;7.158;2022-10-16T07:08:41;17.10;69.40
13569;DHT22;6856;51.460;7.158;2022-10-16T07:11:18;17.00;69.30
13569;DHT22;6856;51.460;7.158;2022-10-16T07:13:53;17.00;69.30
13569;DHT22;6856;51.460;7.158;2022-10-16T07:16:29;17.00;69.20
13569;DHT22;6856;51.460;7.158;2022-10-16T07:19:03;17.00;69.30
13569;DHT22;6856;51.460;7.158;2022-10-16T07:21:39;17.10;69.30
13569;DHT22;6856;51.460;7.158;2022-10-16T07:24:15;17.10;69.40
13569;DHT22;6856;51.460;7.158;2022-10-16T07:26:51;17.10;69.40
13569;DHT22;6856;51.460;7.158;2022-10-16T07:29:24;17.10;69.20
13569;DHT22;6856;51.460;7.158;2022-10-16T07:31:58;17.10;69.00
13569;DHT22;6856;51.460;7.158;2022-10-16T07:34:31;17.20;69.80
13569;DHT22;6856;51.460;7.158;2022-10-16T07:37:06;17.20;69.00
13569;DHT22;6856;51.460;7.158;2022-10-16T07:39:40;17.20;68.90
13569;DHT22;6856;51.460;7.158;2022-10-16T07:42:15;17.20;69.00
13569;DHT22;6856;51.460;7.158;2022-10-16T07:44:49;17.20;69.10
13569;DHT22;6856;51.460;7.158;2022-10-16T07:47:22;17.20;69.20
13569;DHT22;6856;51.460;7.158;2022-10-16T07:49:56;17.30;69.50
13569;DHT22;6856;51.460;7.158;2022-10-16T07:52:30;17.30;70.00
13569;DHT22;6856;51.460;7.158;2022-10-16T07:55:07;17.40;70.00
13569;DHT22;6856;51.460;7.158;2022-10-16T07:57:42;17.50;70.20
13569;DHT22;6856;51.460;7.158;2022-10-16T08:00:17;17.50;70.00
13569;DHT22;6856;51.460;7.158;2022-10-16T08:02:52;17.60;69.60
13569;DHT22;6856;51.460;7.158;2022-10-16T08:05:28;17.70;69.80
13569;DHT22;6856;51.460;7.158;2022-10-16T08:08:06;17.80;70.00
13569;DHT22;6856;51.460;7.158;2022-10-16T08:10:42;17.80;69.70
13569;DHT22;6856;51.460;7.158;2022-10-16T08:13:18;17.90;69.50
13569;DHT22;6856;51.460;7.158;2022-10-16T08:15:54;18.00;69.40
13569;DHT22;6856;51.460;7.158;2022-10-16T08:18:29;18.10;69.10
13569;DHT22;6856;51.460;7.158;2022-10-16T08:21:04;18.20;68.70
13569;DHT22;6856;51.460;7.158;2022-10-16T08:23:40;18.30;68.90
13569;DHT22;6856;51.460;7.158;2022-10-16T08:26:16;18.30;68.60
13569;DHT22;6856;51.460;7.158;2022-10-16T08:28:52;18.40;68.30
13569;DHT22;6856;51.460;7.158;2022-10-16T08:31:34;18.50;68.10
13569;DHT22;6856;51.460;7.158;2022-10-16T08:34:11;18.60;68.10
13569;DHT22;6856;51.460;7.158;2022-10-16T08:36:45;18.70;68.00
13569;DHT22;6856;51.460;7.158;2022-10-16T08:39:18;18.70;67.70
13569;DHT22;6856;51.460;7.158;2022-10-16T08:42:19;18.80;67.00
13569;DHT22;6856;51.460;7.158;2022-10-16T08:45:15;18.90;67.20
13569;DHT22;6856;51.460;7.158;2022-10-16T08:48:11;19.00;66.70
13569;DHT22;6856;51.460;7.158;2022-10-16T08:50:52;19.10;66.60
13569;DHT22;6856;51.460;7.158;2022-10-16T08:53:30;19.10;66.30
13569;DHT22;6856;51.460;7.158;2022-10-16T08:56:09;19.20;65.70
13569;DHT22;6856;51.460;7.158;2022-10-16T08:58:45;19.20;64.90
13569;DHT22;6856;51.460;7.158;2022-10-16T09:01:22;19.30;65.30
13569;DHT22;6856;51.460;7.158;2022-10-16T09:04:18;19.30;65.00
13569;DHT22;6856;51.460;7.158;2022-10-16T09:07:16;19.30;65.00
13569;DHT22;6856;51.460;7.158;2022-10-16T09:10:12;19.40;65.10
13569;DHT22;6856;51.460;7.158;2022-10-16T09:12:58;19.50;64.90
13569;DHT22;6856;51.460;7.158;2022-10-16T09:15:49;19.50;64.60
13569;DHT22;6856;51.460;7.158;2022-10-16T09:18:34;19.60;64.70
13569;DHT22;6856;51.460;7.158;2022-10-16T09:21:17;19.60;64.80
13569;DHT22;6856;51.460;7.158;2022-10-16T09:23:58;19.70;64.40
13569;DHT22;6856;51.460;7.158;2022-10-16T09:26:33;19.80;64.10
13569;DHT22;6856;51.460;7.158;2022-10-16T09:29:09;19.80;63.80
13569;DHT22;6856;51.460;7.158;2022-10-16T09:31:46;19.90;63.90
13569;DHT22;6856;51.460;7.158;2022-10-16T09:34:27;20.00;64.00
13569;DHT22;6856;51.460;7.158;2022-10-16T09:37:08;20.00;64.20
13569;DHT22;6856;51.460;7.158;2022-10-16T09:39:45;19.90;64.10
13569;DHT22;6856;51.460;7.158;2022-10-16T09:42:24;20.10;63.00
13569;DHT22;6856;51.460;7.158;2022-10-16T09:45:04;20.20;62.80
13569;DHT22;6856;51.460;7.158;2022-10-16T09:47:41;20.30;62.70
13569;DHT22;6856;51.460;7.158;2022-10-16T09:50:23;20.30;62.20
13569;DHT22;6856;51.460;7.158;2022-10-16T09:53:07;20.30;62.00
13569;DHT22;6856;51.460;7.158;2022-10-16T09:55:53;20.40;62.10
13569;DHT22;6856;51.460;7.158;2022-10-16T09:58:27;20.50;61.70
13569;DHT22;6856;51.460;7.158;2022-10-16T10:01:05;20.50;61.40
13569;DHT22;6856;51.460;7.158;2022-10-16T10:03:39;20.50;61.30
13569;DHT22;6856;51.460;7.158;2022-10-16T10:06:41;20.60;61.30
13569;DHT22;6856;51.460;7.158;2022-10-16T10:09:22;20.60;61.00
13569;DHT22;6856;51.460;7.158;2022-10-16T10:11:57;20.70;61.10
13569;DHT22;6856;51.460;7.158;2022-10-16T10:14:36;20.70;61.20
13569;DHT22;6856;51.460;7.158;2022-10-16T10:17:15;20.80;60.90
13569;DHT22;6856;51.460;7.158;2022-10-16T10:19:52;20.80;60.70
13569;DHT22;6856;51.460;7.158;2022-10-16T10:22:31;20.90;60.10
13569;DHT22;6856;51.460;7.158;2022-10-16T10:25:35;20.90;60.00
13569;DHT22;6856;51.460;7.158;2022-10-16T10:28:30;20.90;60.20
13569;DHT22;6856;51.460;7.158;2022-10-16T10:31:34;21.00;59.90
13569;DHT22;6856;51.460;7.158;2022-10-16T10:34:28;21.10;59.90
13569;DHT22;6856;51.460;7.158;2022-10-16T10:37:40;21.10;59.90
13569;DHT22;6856;51.460;7.158;2022-10-16T10:40:43;21.20;59.60
13569;DHT22;6856;51.460;7.158;2022-10-16T10:43:44;21.30;59.70
13569;DHT22;6856;51.460;7.158;2022-10-16T10:46:31;21.40;59.50
13569;DHT22;6856;51.460;7.158;2022-10-16T10:52:36;21.60;59.50
13569;DHT22;6856;51.460;7.158;2022-10-16T10:55:22;21.70;59.40
13569;DHT22;6856;51.460;7.158;2022-10-16T10:58:15;21.80;59.60
13569;DHT22;6856;51.460;7.158;2022-10-16T11:01:09;21.90;59.30
13569;DHT22;6856;51.460;7.158;2022-10-16T11:04:07;22.00;59.10
13569;DHT22;6856;51.460;7.158;2022-10-16T11:07:04;22.10;57.80
13569;DHT22;6856;51.460;7.158;2022-10-16T11:09:47;22.10;58.40
13569;DHT22;6856;51.460;7.158;2022-10-16T11:12:25;22.10;57.70
13569;DHT22;6856;51.460;7.158;2022-10-16T11:15:11;22.10;57.80
13569;DHT22;6856;51.460;7.158;2022-10-16T11:17:52;22.10;57.80
13569;DHT22;6856;51.460;7.158;2022-10-16T11:20:32;22.10;57.30
13569;DHT22;6856;51.460;7.158;2022-10-16T11:23:14;22.20;57.90
13569;DHT22;6856;51.460;7.158;2022-10-16T11:25:54;22.20;57.70
13569;DHT22;6856;51.460;7.158;2022-10-16T11:28:33;22.20;57.60
13569;DHT22;6856;51.460;7.158;2022-10-16T11:31:14;22.30;57.70
13569;DHT22;6856;51.460;7.158;2022-10-16T11:33:59;22.30;57.50
13569;DHT22;6856;51.460;7.158;2022-10-16T11:36:40;22.40;57.20
13569;DHT22;6856;51.460;7.158;2022-10-16T11:39:20;22.40;57.20
13569;DHT22;6856;51.460;7.158;2022-10-16T11:42:02;22.40;57.10
13569;DHT22;6856;51.460;7.158;2022-10-16T11:44:50;22.50;57.20
13569;DHT22;6856;51.460;7.158;2022-10-16T11:47:34;22.50;56.90
13569;DHT22;6856;51.460;7.158;2022-10-16T11:50:33;22.60;56.50
13569;DHT22;6856;51.460;7.158;2022-10-16T11:53:14;22.60;56.70
13569;DHT22;6856;51.460;7.158;2022-10-16T11:55:54;22.60;56.50
13569;DHT22;6856;51.460;7.158;2022-10-16T11:58:35;22.60;56.90
13569;DHT22;6856;51.460;7.158;2022-10-16T12:01:27;22.70;56.00
13569;DHT22;6856;51.460;7.158;2022-10-16T12:04:14;22.70;56.20
13569;DHT22;6856;51.460;7.158;2022-10-16T12:06:58;22.70;56.30
13569;DHT22;6856;51.460;7.158;2022-10-16T12:09:38;22.80;56.00
13569;DHT22;6856;51.460;7.158;2022-10-16T12:12:27;22.90;56.00
13569;DHT22;6856;51.460;7.158;2022-10-16T12:15:23;22.90;55.40
13569;DHT22;6856;51.460;7.158;2022-10-16T12:18:21;23.00;55.30
13569;DHT22;6856;51.460;7.158;2022-10-16T12:20:57;23.00;55.50
13569;DHT22;6856;51.460;7.158;2022-10-16T12:23:48;23.10;55.20
13569;DHT22;6856;51.460;7.158;2022-10-16T12:26:24;23.10;55.10
13569;DHT22;6856;51.460;7.158;2022-10-16T12:29:13;23.10;55.40
13569;DHT22;6856;51.460;7.158;2022-10-16T12:31:56;23.10;54.70
13569;DHT22;6856;51.460;7.158;2022-10-16T12:34:37;23.10;55.40
13569;DHT22;6856;51.460;7.158;2022-10-16T12:37:18;23.20;55.10
13569;DHT22;6856;51.460;7.158;2022-10-16T12:39:56;23.20;55.20
13569;DHT22;6856;51.460;7.158;2022-10-16T12:42:36;23.30;55.20
13569;DHT22;6856;51.460;7.158;2022-10-16T12:45:30;23.30;55.20
13569;DHT22;6856;51.460;7.158;2022-10-16T12:48:19;23.30;54.20
13569;DHT22;6856;51.460;7.158;2022-10-16T12:51:11;23.30;54.60
13569;DHT22;6856;51.460;7.158;2022-10-16T12:53:46;23.30;54.60
13569;DHT22;6856;51.460;7.158;2022-10-16T12:56:24;23.30;54.50
13569;DHT22;6856;51.460;7.158;2022-10-16T12:59:20;23.20;54.30
13569;DHT22;6856;51.460;7.158;2022-10-16T13:02:23;23.20;54.10
13569;DHT22;6856;51.460;7.158;2022-10-16T13:05:30;23.10;53.50
13569;DHT22;6856;51.460;7.158;2022-10-16T13:08:28;23.10;53.70
13569;DHT22;6856;51.460;7.158;2022-10-16T13:11:17;23.10;53.70
13569;DHT22;6856;51.460;7.158;2022-10-16T13:14:14;23.00;53.90
13569;DHT22;6856;51.460;7.158;2022-10-16T13:17:11;23.00;53.60
13569;DHT22;6856;51.460;7.158;2022-10-16T13:19:58;23.00;53.80
13569;DHT22;6856;51.460;7.158;2022-10-16T13:22:48;23.00;53.50
13569;DHT22;6856;51.460;7.158;2022-10-16T13:25:41;22.90;53.40
13569;DHT22;6856;51.460;7.158;2022-10-16T13:28:27;22.90;53.60
13569;DHT22;6856;51.460;7.158;2022-10-16T13:31:05;22.90;54.20
13569;DHT22;6856;51.460;7.158;2022-10-16T13:33:53;22.90;53.80
13569;DHT22;6856;51.460;7.158;2022-10-16T13:36:35;22.80;53.40
13569;DHT22;6856;51.460;7.158;2022-10-16T13:39:24;22.80;53.00
13569;DHT22;6856;51.460;7.158;2022-10-16T13:42:02;22.80;53.00
13569;DHT22;6856;51.460;7.158;2022-10-16T13:44:42;22.70;53.10
13569;DHT22;6856;51.460;7.158;2022-10-16T13:47:21;22.70;53.20
13569;DHT22;6856;51.460;7.158;2022-10-16T13:50:01;22.60;53.30
13569;DHT22;6856;51.460;7.158;2022-10-16T13:52:35;22.60;53.40
13569;DHT22;6856;51.460;7.158;2022-10-16T13:55:16;22.50;53.40
13569;DHT22;6856;51.460;7.158;2022-10-16T13:57:51;22.50;53.20
13569;DHT22;6856;51.460;7.158;2022-10-16T14:00:26;22.50;53.40
13569;DHT22;6856;51.460;7.158;2022-10-16T14:03:12;22.50;53.60
13569;DHT22;6856;51.460;7.158;2022-10-16T14:05:49;22.40;53.70
13569;DHT22;6856;51.460;7.158;2022-10-16T14:08:26;22.40;53.70
13569;DHT22;6856;51.460;7.158;2022-10-16T14:11:03;22.40;53.80
13569;DHT22;6856;51.460;7.158;2022-10-16T14:13:38;22.40;53.60
13569;DHT22;6856;51.460;7.158;2022-10-16T14:16:18;22.40;54.10
13569;DHT22;6856;51.460;7.158;2022-10-16T14:18:59;22.40;54.00
13569;DHT22;6856;51.460;7.158;2022-10-16T14:21:35;22.40;54.10
13569;DHT22;6856;51.460;7.158;2022-10-16T14:24:13;22.40;54.20
13569;DHT22;6856;51.460;7.158;2022-10-16T14:27:00;22.40;54.40
13569;DHT22;6856;51.460;7.158;2022-10-16T14:29:40;22.50;54.10
13569;DHT22;6856;51.460;7.158;2022-10-16T14:32:22;22.40;53.80
13569;DHT22;6856;51.460;7.158;2022-10-16T14:34:57;22.50;53.90
13569;DHT22;6856;51.460;7.158;2022-10-16T14:37:35;22.50;53.80
13569;DHT22;6856;51.460;7.158;2022-10-16T14:40:14;22.40;53.90
13569;DHT22;6856;51.460;7.158;2022-10-16T14:42:49;22.40;54.30
13569;DHT22;6856;51.460;7.158;2022-10-16T14:45:26;22.40;54.70
13569;DHT22;6856;51.460;7.158;2022-10-16T14:48:17;22.40;55.10
13569;DHT22;6856;51.460;7.158;2022-10-16T14:50:52;22.40;54.80
13569;DHT22;6856;51.460;7.158;2022-10-16T14:53:26;22.40;54.70
13569;DHT22;6856;51.460;7.158;2022-10-16T14:56:06;22.40;54.60
13569;DHT22;6856;51.460;7.158;2022-10-16T14:58:41;22.40;55.30
13569;DHT22;6856;51.460;7.158;2022-10-16T15:01:16;22.40;54.70
13569;DHT22;6856;51.460;7.158;2022-10-16T15:03:50;22.40;54.80
13569;DHT22;6856;51.460;7.158;2022-10-16T15:06:25;22.40;54.70
13569;DHT22;6856;51.460;7.158;2022-10-16T15:08:59;22.40;54.80
13569;DHT22;6856;51.460;7.158;2022-10-16T15:11:32;22.40;54.80
13569;DHT22;6856;51.460;7.158;2022-10-16T15:14:09;22.40;55.20
13569;DHT22;6856;51.460;7.158;2022-10-16T15:16:44;22.40;55.40
13569;DHT22;6856;51.460;7.158;2022-10-16T15:19:18;22.40;55.40
13569;DHT22;6856;51.460;7.158;2022-10-16T15:21:51;22.40;55.60
13569;DHT22;6856;51.460;7.158;2022-10-16T15:24:25;22.40;55.80
13569;DHT22;6856;51.460;7.158;2022-10-16T15:26:59;22.40;56.00
13569;DHT22;6856;51.460;7.158;2022-10-16T15:29:34;22.30;56.00
13569;DHT22;6856;51.460;7.158;2022-10-16T15:32:09;22.30;56.00
13569;DHT22;6856;51.460;7.158;2022-10-16T15:34:43;22.30;56.50
13569;DHT22;6856;51.460;7.158;2022-10-16T15:37:19;22.30;56.50
13569;DHT22;6856;51.460;7.158;2022-10-16T15:39:53;22.30;56.50
13569;DHT22;6856;51.460;7.158;2022-10-16T15:42:30;22.30;56.70
13569;DHT22;6856;51.460;7.158;2022-10-16T15:45:12;22.30;56.80
13569;DHT22;6856;51.460;7.158;2022-10-16T15:47:47;22.20;56.90
13569;DHT22;6856;51.460;7.158;2022-10-16T15:50:21;22.20;57.00
13569;DHT22;6856;51.460;7.158;2022-10-16T15:52:55;22.20;57.10
13569;DHT22;6856;51.460;7.158;2022-10-16T15:55:29;22.20;57.20
13569;DHT22;6856;51.460;7.158;2022-10-16T15:58:03;22.20;57.30
13569;DHT22;6856;51.460;7.158;2022-10-16T16:00:38;22.20;57.40
13569;DHT22;6856;51.460;7.158;2022-10-16T16:03:12;22.10;57.20
13569;DHT22;6856;51.460;7.158;2022-10-16T16:05:46;22.10;57.30
13569;DHT22;6856;51.460;7.158;2022-10-16T16:08:19;22.10;57.10
13569;DHT22;6856;51.460;7.158;2022-10-16T16:10:59;22.10;57.20
13569;DHT22;6856;51.460;7.158;2022-10-16T16:13:35;22.00;57.20
13569;DHT22;6856;51.460;7.158;2022-10-16T16:16:13;22.00;57.30
13569;DHT22;6856;51.460;7.158;2022-10-16T16:18:52;22.00;57.30
13569;DHT22;6856;51.460;7.158;2022-10-16T16:21:27;21.90;57.40
13569;DHT22;6856;51.460;7.158;2022-10-16T16:24:01;21.90;57.40
13569;DHT22;6856;51.460;7.158;2022-10-16T16:26:39;21.80;57.40
13569;DHT22;6856;51.460;7.158;2022-10-16T16:29:20;21.80;57.50
13569;DHT22;6856;51.460;7.158;2022-10-16T16:31:56;21.80;57.60
13569;DHT22;6856;51.460;7.158;2022-10-16T16:34:30;21.80;57.60
13569;DHT22;6856;51.460;7.158;2022-10-16T16:37:04;21.70;57.60
13569;DHT22;6856;51.460;7.158;2022-10-16T16:39:37;21.70;57.70
13569;DHT22;6856;51.460;7.158;2022-10-16T16:42:11;21.70;57.80
13569;DHT22;6856;51.460;7.158;2022-10-16T16:44:47;21.60;57.70
13569;DHT22;6856;51.460;7.158;2022-10-16T16:47:28;21.60;57.70
13569;DHT22;6856;51.460;7.158;2022-10-16T16:50:02;21.50;57.90
13569;DHT22;6856;51.460;7.158;2022-10-16T16:52:36;21.50;57.90
13569;DHT22;6856;51.460;7.158;2022-10-16T16:55:09;21.50;57.90
13569;DHT22;6856;51.460;7.158;2022-10-16T16:57:53;21.40;57.90
13569;DHT22;6856;51.460;7.158;2022-10-16T17:00:26;21.40;58.00
13569;DHT22;6856;51.460;7.158;2022-10-16T17:03:05;21.30;57.90